• Join FlightAware (Why Join?)
  • Login
  • US Flag 
04:51AM EDT


 

Airport Tracker/Info


-or-


 

Live Flight TrackerFlight Track Log ✈ CSN6814 ✈ 24-Mar-2014 ✈ ZWTN / HTN - ZWWW / URC

Flight Track Log - Related Links

Times and Time Zones

All times are in EDT time to prevent confusion due to time zone crossing. See the CSN6814 flight status page for this flight to view local times or setup timezone preferences in your user account.

Time Position Orientation Groundspeed Altitude Reporting Facility
EDT Latitude Longitude Course Direction KTS MPH feet Rate Location/Type
11:31PM 37.9233 80.7350 38° Northeast  Level Estimated
11:32PM 38.0114 80.8232 38° Northeast  Level Estimated
11:33PM 38.0994 80.9116 38° Northeast  Level Estimated
11:34PM 38.1874 81.0001 38° Northeast  Level Estimated
11:35PM 38.2754 81.0889 38° Northeast  Level Estimated
11:36PM 38.3632 81.1779 38° Northeast  Level Estimated
11:37PM 38.4510 81.2672 39° Northeast  Level Estimated
11:38PM 38.5387 81.3566 39° Northeast  Level Estimated
11:39PM 38.6264 81.4463 39° Northeast  Level Estimated
11:40PM 38.7140 81.5361 39° Northeast  Level Estimated
11:41PM 38.8015 81.6262 39° Northeast  Level Estimated
11:42PM 38.8889 81.7166 39° Northeast  Level Estimated
11:43PM 38.9763 81.8071 39° Northeast  Level Estimated
11:44PM 39.0636 81.8979 39° Northeast  Level Estimated
11:45PM 39.1508 81.9889 39° Northeast  Level Estimated
11:46PM 39.2380 82.0801 39° Northeast  Level Estimated
11:47PM 39.3251 82.1715 39° Northeast  Level Estimated
11:48PM 39.4121 82.2632 39° Northeast  Level Estimated
11:49PM 39.4990 82.3551 39° Northeast  Level Estimated
11:50PM 39.5859 82.4472 39° Northeast  Level Estimated
11:51PM 39.6727 82.5396 39° Northeast  Level Estimated
11:52PM 39.7594 82.6322 39° Northeast  Level Estimated
11:53PM 39.8461 82.7250 39° Northeast  Level Estimated
11:54PM 39.9327 82.8181 39° Northeast  Level Estimated
11:55PM 40.0192 82.9114 40° Northeast  Level Estimated
11:56PM 40.1056 83.0049 40° Northeast  Level Estimated
11:57PM 40.1920 83.0987 40° Northeast  Level Estimated
11:58PM 40.2783 83.1927 40° Northeast  Level Estimated
11:59PM 40.3645 83.2870 40° Northeast  Level Estimated
12:00AM 40.4506 83.3815 40° Northeast  Level Estimated
12:01AM 40.5366 83.4762 40° Northeast  Level Estimated
12:02AM 40.6226 83.5712 40° Northeast  Level Estimated
12:03AM 40.7085 83.6664 40° Northeast  Level Estimated
12:04AM 40.7943 83.7619 40° Northeast  Level Estimated
12:05AM 40.8801 83.8576 40° Northeast  Level Estimated
12:06AM 40.9657 83.9536 40° Northeast  Level Estimated
12:07AM 41.0513 84.0498 40° Northeast  Level Estimated
12:08AM 41.1368 84.1462 40° Northeast  Level Estimated
12:09AM 41.2222 84.2430 40° Northeast  Level Estimated
12:10AM 41.3075 84.3399 40° Northeast  Level Estimated
12:11AM 41.3928 84.4371 41° Northeast  Level Estimated
12:12AM 41.4780 84.5346 41° Northeast  Level Estimated
12:13AM 41.5630 84.6324 41° Northeast  Level Estimated
12:14AM 41.6481 84.7304 41° Northeast  Level Estimated
12:15AM 41.7330 84.8286 41° Northeast  Level Estimated
12:16AM 41.8178 84.9271 41° Northeast  Level Estimated
12:17AM 41.9026 85.0259 41° Northeast  Level Estimated
12:18AM 41.9872 85.1249 41° Northeast  Level Estimated
12:19AM 42.0718 85.2242 41° Northeast  Level Estimated
12:20AM 42.1563 85.3238 41° Northeast  Level Estimated
12:21AM 42.2407 85.4236 41° Northeast  Level Estimated
12:22AM 42.3251 85.5237 41° Northeast  Level Estimated
12:23AM 42.4093 85.6241 41° Northeast  Level Estimated
12:24AM 42.4935 85.7247 41° Northeast  Level Estimated
12:25AM 42.5775 85.8256 41° Northeast  Level Estimated
12:26AM 42.6615 85.9268 42° Northeast  Level Estimated
12:27AM 42.7454 86.0283 42° Northeast  Level Estimated
12:28AM 42.8292 86.1300 42° Northeast  Level Estimated
12:29AM 42.9129 86.2320 42° Northeast  Level Estimated
12:30AM 42.9965 86.3343 42° Northeast  Level Estimated
12:31AM 43.0800 86.4369 42° Northeast  Level Estimated
12:32AM 43.1634 86.5397 42° Northeast  Level Estimated
12:33AM 43.2468 86.6428 42° Northeast  Level Estimated
12:34AM 43.3300 86.7462 42° Northeast  Level Estimated
12:35AM 43.4132 86.8499 42° Northeast  Level Estimated
12:36AM 43.4962 86.9539 42° Northeast  Level Estimated
12:37AM 43.5792 87.0581 42° Northeast  Level Estimated
12:38AM 43.6621 87.1627 42° Northeast  Level Estimated
12:39AM 43.7448 87.2675 42° Northeast  Level Estimated
12:40AM 43.8275 87.3726 43° Northeast  Level Estimated
12:41AM 43.9071 87.4742 43° Northeast  Level Estimated
12:42AM 43.9071 87.4742 North  Level Estimated
12:43AM 43.9071 87.4742 North  Level Estimated
12:44AM 43.9071 87.4742 North  Level Estimated
12:45AM 43.9071 87.4742 North  Level Estimated
12:46AM 43.9071 87.4742 North  Level Estimated
12:47AM 43.9071 87.4742 North  Level Estimated
12:48AM 43.9071 87.4742 North  Level Estimated
12:49AM 43.9071 87.4742 North  Level Estimated
12:50AM 43.9071 87.4742 North  Level Estimated
12:51AM 43.9071 87.4742 North  Level Estimated
12:52AM 43.9071 87.4742 North  Level Estimated
12:53AM 43.9071 87.4742 North  Level Estimated
12:54AM 43.9071 87.4742 North  Level Estimated
12:55AM 43.9071 87.4742 North  Level Estimated
12:56AM 43.9071 87.4742 North  Level Estimated